Terminal Aerodrome Forecast
Issued by NWS

Home | Current Version | Previous Version | Text Only | Print | Product List | Glossary On
Versions: 1 2 3 4 5 6 7 8 9 10 11 12 13 14 15 16 17
837
FTUS44 KLZK 301739
TAFLLQ
TAF
KLLQ 301739Z 3018/3118 25005KT P6SM FEW015 SCT060
     FM302200 20005KT P6SM VCTS SCT025 BKN050CB
     FM310100 23004KT P6SM SCT040 SCT100
     FM310900 23002KT P6SM FEW008 SCT015
      TEMPO 3111/3114 5SM BR BKN015
     FM311500 21005KT P6SM SCT020 BKN035=

USA.gov is the U.S. government's official web portal to all federal, state and local government web resources and services.